• Join FlightAware (Why Join?)
  • Login
  • US Flag 
03:07AM EST


 

Airport Tracker/Info


-or-


 

Live Flight TrackerFlight Track Log ✈ RPA4886 ✈ 08-May-2013 ✈ KALB - KIAD

Flight Track Log - Related Links

Times and Time Zones

All times are in EDT time to prevent confusion due to time zone crossing. See the RPA4886 flight status page for this flight to view local times or setup timezone preferences in your user account.

Time Position Orientation Groundspeed Altitude Reporting Facility
EDT Latitude Longitude Course Direction KTS MPH feet Rate Location/Type
09:14PM 42.6900 -73.8158 188° South 188 216 3,100  Level Boston Center
09:16PM 42.7334 -74.1675 270° West  Level FlightAware Approximate
09:16PM 42.6869 -73.9089 267° West 238 274 6,200  Level Boston Center
09:17PM 42.7333 -74.2900 270° West  Level FlightAware Approximate
09:17PM 42.7022 -74.0167 281° West 238 274 8,600  Level Boston Center
09:18PM 42.6758 -74.3794 220° Southwest  Level FlightAware Approximate
09:18PM 42.6964 -74.1208 266° West 244 281 11,200  Level Boston Center
09:19PM 42.6065 -74.4574 220° Southwest  Level FlightAware Approximate
09:19PM 42.6578 -74.1933 234° Southwest 260 299 13,000  Level Boston Center
09:20PM 42.6064 -74.2850 233° Southwest 286 329 14,700 1,440 Climbing Boston Center
09:21PM 42.5675 -74.3683 238° Southwest 286 329 15,900 600 Climbing Boston Center
09:22PM 42.5094 -74.4736 233° Southwest 306 352 16,000  Climbing Boston Center
09:23PM 42.4597 -74.5706 235° Southwest 341 392 16,000  Level Boston Center
09:24PM 42.3947 -74.6892 233° Southwest 357 411 16,000  Level Boston Center
09:25PM 42.3450 -74.7858 235° Southwest 357 411 16,000 -60 Level Boston Center
09:26PM 42.2883 -74.8986 236° Southwest 357 411 15,900  Descending Boston Center
09:28PM 42.1750 -75.1081 234° Southwest 356 410 16,000  Climbing New York Center
09:29PM 42.1172 -75.2106 233° Southwest 351 404 16,000  Level New York Center
09:30PM 42.0608 -75.3269 237° Southwest 351 404 16,000  Level New York Center
09:31PM 42.0086 -75.4350 237° Southwest 345 397 16,000  Level New York Center
09:32PM 41.9567 -75.5372 236° Southwest 340 391 16,000  Level New York Center
09:33PM 41.9114 -75.6286 236° Southwest 335 386 16,100  Climbing New York Center
09:34PM 41.8547 -75.7386 235° Southwest 335 386 16,100 -60 Level New York Center
09:35PM 41.8158 -75.8247 239° Southwest 335 386 16,000 -60 Descending New York Center
09:36PM 41.7906 -75.9258 251° West 304 350 16,000  Level New York Center
09:37PM 41.7667 -76.0436 255° West 295 339 16,000  Level New York Center
09:38PM 41.7450 -76.1558 256° West 306 352 16,000  Level New York Center
09:39PM 41.7217 -76.2542 252° West 311 358 16,000  Level New York Center
09:40PM 41.6939 -76.3628 251° West 316 364 16,000  Level New York Center
09:41PM 41.6189 -76.4508 221° Southwest 318 366 16,000  Level New York Center
09:42PM 41.5503 -76.5311 221° Southwest 324 373 16,000  Level New York Center
09:43PM 41.4800 -76.6081 219° Southwest 330 380 16,000  Level New York Center
09:44PM 41.4111 -76.6933 223° Southwest 330 380 16,000  Level New York Center
09:45PM 41.3428 -76.7675 219° Southwest 330 380 16,000  Level New York Center
09:46PM 41.2561 -76.7958 194° South 317 365 16,000  Level New York Center
09:47PM 41.1678 -76.8128 188° South 317 365 16,000  Level New York Center
09:48PM 41.0794 -76.8269 187° South 322 371 16,000  Level New York Center
09:49PM 40.9911 -76.8436 188° South 322 371 16,000  Level New York Center
09:50PM 40.9025 -76.8633 190° South 322 371 16,000  Level New York Center
09:51PM 40.8161 -76.8803 188° South 317 365 16,000  Level New York Center
09:52PM 40.7317 -76.9028 191° South 317 365 16,000  Level New York Center
09:53PM 40.6617 -76.9267 195° South 323 372 16,000  Level New York Center
09:54PM 40.5619 -76.9589 194° South 323 372 16,000  Level New York Center
09:55PM 40.4731 -76.9836 192° South 323 372 16,000  Level New York Center
09:56PM 40.3864 -77.0086 192° South 323 372 16,000  Level New York Center
09:57PM 40.3014 -77.0389 195° South 328 377 16,000  Level New York Center
09:58PM 40.2125 -77.0636 192° South 328 377 16,000 -300 Level New York Center
09:59PM 40.1319 -77.0889 193° South 328 377 15,500 -720 Descending New York Center
10:00PM 40.0344 -77.1181 193° South 328 377 14,600 -900 Descending New York Center
10:02PM 39.8500 -77.1667 191° South 321 369 12,800 -900 Descending Potomac TRACON
10:03PM 39.7833 -77.2333 218° Southwest 319 367 11,900 -900 Descending Potomac TRACON
10:04PM 39.7000 -77.2667 197° South 314 361 11,000 -900 Descending Potomac TRACON
10:05PM 39.6167 -77.3000 197° South 300 345 10,100 -900 Descending Potomac TRACON
10:06PM 39.5333 -77.3333 197° South 280 322 9,200 -900 Descending Potomac TRACON
10:07PM 39.4667 -77.3833 210° Southwest 274 315 8,300 -1,020 Descending Potomac TRACON
10:08PM 39.4167 -77.4333 218° Southwest 275 316 7,300 -960 Descending Potomac TRACON
10:09PM 39.3500 -77.4667 201° Southwest 245 282 6,400 -900 Descending Potomac TRACON
10:10PM 39.2833 -77.4667 180° South 230 265 5,500 -960 Descending Potomac TRACON
10:11PM 39.2333 -77.4500 166° South 209 241 4,600 -720 Descending Potomac TRACON
10:12PM 39.1833 -77.4500 180° South 194 223 4,100 -600 Descending Potomac TRACON
10:13PM 39.1333 -77.4500 180° South 185 213 3,400 -780 Descending Potomac TRACON